Time;durP1;ratioP1;P1;durP2;ratioP2;P2;SDS_P1;SDS_P2;PMS_P1;PMS_P2;Temp;Humidity;BMP_temperature;BMP_pressure;BME280_temperature;BME280_humidity;BME280_pressure;Samples;Min_cycle;Max_cycle;Signal;HPM_P1;HPM_P2
2022/04/12 00:00:42;;;;;;;18.23;9.07;;;;;;;8.06;59.26;101187.91;4958379;28;20035;-64
2022/04/12 00:03:09;;;;;;;14.32;9.52;;;;;;;8.10;58.41;101189.50;4958629;28;20483;-64
2022/04/12 00:05:36;;;;;;;16.60;9.30;;;;;;;7.95;59.04;101177.81;4958366;28;20092;-64
2022/04/12 00:08:02;;;;;;;17.17;9.43;;;;;;;7.80;60.51;101178.53;4958460;28;20247;-64
2022/04/12 00:10:29;;;;;;;14.85;8.77;;;;;;;7.94;59.23;101176.09;4958305;28;20039;-64
2022/04/12 00:12:56;;;;;;;17.48;10.15;;;;;;;7.96;59.02;101170.69;4958761;28;20109;-64
2022/04/12 00:15:21;;;;;;;13.95;8.52;;;;;;;8.02;58.59;101165.94;4959006;28;20171;-64
2022/04/12 00:20:34;;;;;;;15.57;8.60;;;;;;;8.09;58.22;101166.53;5059556;28;20043;-64
2022/04/12 00:23:01;;;;;;;13.65;8.73;;;;;;;8.12;57.74;101166.38;5058062;28;20497;-64
2022/04/12 00:25:27;;;;;;;19.27;9.82;;;;;;;7.98;58.40;101168.81;5057549;28;20568;-63
2022/04/12 00:27:55;;;;;;;15.27;9.00;;;;;;;7.86;59.05;101164.09;5059089;28;20032;-64
2022/04/12 00:30:22;;;;;;;16.60;8.70;;;;;;;7.95;58.73;101161.88;5060046;28;20822;-64
2022/04/12 00:32:50;;;;;;;17.33;9.38;;;;;;;7.97;58.40;101157.34;5059188;28;20043;-64
2022/04/12 00:35:17;;;;;;;12.60;8.30;;;;;;;7.77;58.94;101158.28;5058885;28;20989;-64
2022/04/12 00:37:42;;;;;;;17.98;9.55;;;;;;;7.86;59.16;101150.81;5059333;28;20482;-64
2022/04/12 00:40:08;;;;;;;17.75;8.38;;;;;;;7.87;59.08;101140.13;4961050;28;20050;-64
2022/04/12 00:42:34;;;;;;;16.00;9.18;;;;;;;7.81;59.16;101145.72;4958537;28;20046;-64
2022/04/12 00:45:00;;;;;;;24.08;8.63;;;;;;;7.79;58.97;101144.97;4956798;28;20046;-64
2022/04/12 00:47:25;;;;;;;17.50;8.65;;;;;;;7.79;59.04;101143.16;4957336;28;20050;-65
2022/04/12 00:49:50;;;;;;;15.13;8.23;;;;;;;7.92;57.89;101126.63;4958350;28;20046;-64
2022/04/12 00:52:16;;;;;;;15.85;8.43;;;;;;;7.97;58.19;101127.28;4958654;28;20058;-64
2022/04/12 00:54:42;;;;;;;17.15;7.95;;;;;;;8.14;56.90;101116.72;4957861;28;20587;-64
2022/04/12 00:57:08;;;;;;;11.18;7.68;;;;;;;8.02;57.87;101126.13;4957173;28;20416;-64
2022/04/12 00:59:35;;;;;;;15.57;8.07;;;;;;;8.05;57.59;101125.97;4956020;28;20043;-64
2022/04/12 01:02:07;;;;;;;17.98;8.82;;;;;;;8.13;56.87;101128.25;4957603;28;20039;-64
2022/04/12 01:04:33;;;;;;;10.25;7.28;;;;;;;8.18;56.45;101133.34;4957879;28;20046;-67
2022/04/12 01:06:59;;;;;;;14.98;7.63;;;;;;;8.17;57.01;101131.63;4957518;28;20035;-64
2022/04/12 01:09:26;;;;;;;12.10;7.00;;;;;;;8.18;56.74;101130.69;4957287;28;20157;-64
2022/04/12 01:11:53;;;;;;;16.05;8.15;;;;;;;8.11;57.33;101116.84;4957485;28;20043;-65
2022/04/12 01:14:19;;;;;;;13.50;8.10;;;;;;;8.02;57.35;101114.63;4956563;28;20083;-64
2022/04/12 01:16:44;;;;;;;14.98;8.23;;;;;;;7.96;57.40;101112.28;4957441;28;20559;-64
2022/04/12 01:19:10;;;;;;;11.82;8.07;;;;;;;7.88;58.12;101114.44;4958065;28;20507;-64
2022/04/12 01:22:00;;;;;;;12.75;7.45;;;;;;;8.01;56.81;101112.91;4957679;28;20046;-64
2022/04/12 01:24:26;;;;;;;11.57;8.20;;;;;;;8.08;56.78;101110.81;4957870;28;20043;-64
2022/04/12 01:26:52;;;;;;;16.95;7.63;;;;;;;7.96;57.40;101102.53;4957892;28;20039;-64
2022/04/12 01:29:17;;;;;;;13.15;7.82;;;;;;;8.02;56.61;101104.88;4957603;28;20096;-64
2022/04/12 01:31:43;;;;;;;10.77;7.13;;;;;;;7.99;56.81;101094.41;4957632;28;20042;-64
2022/04/12 01:34:08;;;;;;;13.32;8.02;;;;;;;8.04;56.51;101104.81;4957257;28;20039;-64
2022/04/12 01:36:33;;;;;;;15.43;7.78;;;;;;;7.99;56.54;101101.53;4956980;28;20203;-64
2022/04/12 01:38:59;;;;;;;11.23;7.70;;;;;;;7.96;57.01;101105.16;4947420;28;20062;-64
2022/04/12 01:41:24;;;;;;;13.95;8.25;;;;;;;7.94;57.07;101101.75;4937427;28;20877;-64
2022/04/12 01:43:50;;;;;;;20.00;7.78;;;;;;;7.88;57.25;101103.81;4937756;28;20043;-64
2022/04/12 01:46:15;;;;;;;13.15;7.97;;;;;;;7.86;57.51;101103.03;4939333;28;20043;-64
2022/04/12 01:48:40;;;;;;;11.35;7.50;;;;;;;7.82;57.72;101097.00;4941496;28;20043;-64
2022/04/12 01:51:06;;;;;;;10.75;7.57;;;;;;;7.77;57.92;101102.53;4941799;28;20215;-64
2022/04/12 01:53:31;;;;;;;15.02;7.97;;;;;;;7.74;58.31;101097.38;4940363;28;20488;-64
2022/04/12 01:55:57;;;;;;;10.52;7.22;;;;;;;7.73;58.24;101090.38;4942272;28;20047;-64
2022/04/12 01:58:22;;;;;;;13.93;7.57;;;;;;;7.76;57.91;101092.00;4939982;28;20039;-64
2022/04/12 02:00:47;;;;;;;11.57;7.07;;;;;;;7.76;58.09;101099.97;4941329;28;20050;-64
2022/04/12 02:03:13;;;;;;;11.43;7.00;;;;;;;7.73;57.98;101093.03;4941561;28;20497;-64
2022/04/12 02:05:39;;;;;;;12.35;7.07;;;;;;;7.83;57.38;101087.25;4941081;28;20066;-64
2022/04/12 02:08:05;;;;;;;13.18;7.35;;;;;;;7.79;57.17;101083.91;4940850;28;20057;-65
2022/04/12 02:10:31;;;;;;;12.27;7.43;;;;;;;7.67;58.30;101087.97;4940997;28;20591;-64
2022/04/12 02:12:56;;;;;;;12.05;7.78;;;;;;;7.64;58.32;101096.09;4940851;28;20047;-64
2022/04/12 02:15:22;;;;;;;9.73;6.38;;;;;;;7.65;58.38;101095.16;4940322;28;20051;-65
2022/04/12 02:17:47;;;;;;;12.68;7.57;;;;;;;7.52;59.10;101102.81;4941655;28;20505;-64
2022/04/12 02:20:13;;;;;;;12.23;7.80;;;;;;;7.51;59.37;101097.59;4959206;28;20050;-64
2022/04/12 02:22:38;;;;;;;14.90;7.68;;;;;;;7.57;58.60;101104.41;4939189;28;20058;-64
2022/04/12 02:25:04;;;;;;;13.18;7.43;;;;;;;7.48;58.97;101098.63;4940773;28;20491;-64
2022/04/12 02:27:30;;;;;;;10.88;6.95;;;;;;;7.41;59.27;101099.81;4941162;28;20081;-64
2022/04/12 02:29:55;;;;;;;12.68;7.53;;;;;;;7.35;59.98;101102.75;4940490;28;20043;-64
2022/04/12 02:32:21;;;;;;;11.93;7.00;;;;;;;7.18;60.84;101100.88;4940202;28;20089;-64
2022/04/12 02:34:46;;;;;;;12.80;7.63;;;;;;;6.97;62.06;101097.38;4939649;28;20504;-64
2022/04/12 02:37:11;;;;;;;11.18;6.85;;;;;;;6.86;62.26;101096.13;4940395;28;20253;-64
2022/04/12 02:39:37;;;;;;;12.63;7.68;;;;;;;6.73;63.05;101101.13;4953926;28;20034;-64
2022/04/12 02:42:02;;;;;;;14.93;7.57;;;;;;;6.78;62.94;101088.53;4957836;28;20588;-64
2022/04/12 02:44:28;;;;;;;18.60;7.47;;;;;;;6.79;62.47;101097.34;4957946;28;20144;-64
2022/04/12 02:46:53;;;;;;;12.43;7.43;;;;;;;6.81;62.63;101093.69;4943398;28;20047;-64
2022/04/12 02:49:19;;;;;;;11.00;6.57;;;;;;;6.90;62.01;101087.13;4939843;28;20047;-64
2022/04/12 02:51:45;;;;;;;12.75;7.47;;;;;;;6.86;61.87;101091.69;4939257;28;20389;-64
2022/04/12 02:54:11;;;;;;;11.18;6.60;;;;;;;6.91;62.24;101094.13;4939273;28;20084;-64
2022/04/12 02:56:37;;;;;;;14.68;7.65;;;;;;;6.82;62.35;101097.19;4938800;28;20415;-64
2022/04/12 02:59:03;;;;;;;13.98;7.13;;;;;;;6.88;62.20;101089.84;4939554;28;20755;-64
2022/04/12 03:01:28;;;;;;;11.25;6.47;;;;;;;6.85;62.45;101089.97;4939397;28;20561;-64
2022/04/12 03:03:54;;;;;;;10.63;6.50;;;;;;;6.96;61.48;101084.19;4939571;29;20039;-64
2022/04/12 03:06:19;;;;;;;11.05;6.53;;;;;;;6.96;61.76;101077.09;4939504;28;20506;-64
2022/04/12 03:08:44;;;;;;;10.23;7.07;;;;;;;6.92;61.97;101078.16;4939937;28;20047;-64
2022/04/12 03:11:10;;;;;;;11.35;7.20;;;;;;;6.71;64.24;101084.41;4940046;28;20047;-64
2022/04/12 03:13:35;;;;;;;14.65;6.75;;;;;;;6.68;63.41;101073.97;4939500;28;20057;-64
2022/04/12 03:16:01;;;;;;;13.65;7.55;;;;;;;6.63;63.72;101082.09;4939229;28;20264;-64
2022/04/12 03:18:26;;;;;;;13.38;7.40;;;;;;;6.69;63.12;101075.69;4946072;28;20047;-64
2022/04/12 03:20:51;;;;;;;11.13;6.45;;;;;;;6.65;63.74;101074.94;4978061;28;20044;-64
2022/04/12 03:23:18;;;;;;;16.15;7.15;;;;;;;6.64;63.10;101072.38;5039535;28;20048;-64
2022/04/12 03:25:44;;;;;;;10.20;6.72;;;;;;;6.65;63.90;101074.09;5040107;28;20123;-65
2022/04/12 03:28:10;;;;;;;10.70;7.25;;;;;;;6.60;64.06;101057.53;5040357;28;20426;-64
2022/04/12 03:30:35;;;;;;;12.65;7.38;;;;;;;6.57;63.53;101061.16;5040250;28;20045;-64
2022/04/12 03:33:01;;;;;;;10.15;7.32;;;;;;;6.52;64.21;101059.63;5040395;28;20449;-64
2022/04/12 03:35:26;;;;;;;11.82;6.68;;;;;;;6.48;64.08;101057.13;5024470;28;20046;-64
2022/04/12 03:37:52;;;;;;;13.05;6.70;;;;;;;6.34;64.72;101051.56;4940036;28;20043;-64
2022/04/12 03:40:18;;;;;;;12.68;6.60;;;;;;;6.40;64.29;101050.44;4956453;28;20046;-64
2022/04/12 03:42:43;;;;;;;11.38;6.97;;;;;;;6.38;64.77;101052.31;4941978;28;20133;-64
2022/04/12 03:45:09;;;;;;;9.90;6.80;;;;;;;6.39;63.63;101052.22;4955454;28;20039;-64
2022/04/12 03:47:34;;;;;;;12.20;7.00;;;;;;;6.39;64.27;101054.00;4958901;28;20570;-64
2022/04/12 03:50:00;;;;;;;11.93;6.88;;;;;;;6.34;64.86;101054.22;4958974;28;20038;-64
2022/04/12 03:52:25;;;;;;;11.65;7.10;;;;;;;6.19;66.01;101045.13;4958157;28;20188;-65
2022/04/12 03:54:50;;;;;;;11.02;6.95;;;;;;;6.14;65.18;101043.59;4972730;28;20039;-64
2022/04/12 03:57:17;;;;;;;11.18;7.35;;;;;;;6.05;66.41;101038.69;4958292;28;20039;-64
2022/04/12 03:59:42;;;;;;;10.88;7.22;;;;;;;6.02;66.34;101046.72;4957514;28;20126;-64
2022/04/12 04:02:08;;;;;;;11.00;7.28;;;;;;;6.02;65.92;101050.25;4957119;28;20043;-64
2022/04/12 04:04:33;;;;;;;13.80;7.57;;;;;;;6.15;65.93;101042.66;4957730;28;20043;-64
2022/04/12 04:06:58;;;;;;;12.32;7.63;;;;;;;5.96;66.53;101047.84;4956728;28;20045;-64
2022/04/12 04:09:24;;;;;;;12.82;7.28;;;;;;;6.01;66.33;101040.59;4954284;28;20042;-64
2022/04/12 04:11:49;;;;;;;12.30;8.07;;;;;;;6.07;65.91;101040.31;4956090;28;20120;-64
2022/04/12 04:14:15;;;;;;;11.57;7.95;;;;;;;6.05;66.27;101036.03;4958035;28;20629;-65
2022/04/12 04:16:41;;;;;;;15.93;8.27;;;;;;;6.04;65.97;101039.63;4958060;28;20047;-64
2022/04/12 04:19:09;;;;;;;12.55;7.28;;;;;;;6.06;66.36;101043.03;4958423;28;20043;-64
2022/04/12 04:21:35;;;;;;;11.20;8.15;;;;;;;6.00;66.29;101048.59;4957550;28;20050;-64
2022/04/12 04:24:01;;;;;;;12.43;7.65;;;;;;;6.07;66.42;101047.41;4958358;28;20045;-64
2022/04/12 04:26:27;;;;;;;12.23;7.20;;;;;;;6.07;66.80;101045.63;4958085;28;20700;-64
2022/04/12 04:28:52;;;;;;;13.43;8.43;;;;;;;6.04;66.21;101059.00;4957444;28;20039;-64
2022/04/12 04:31:19;;;;;;;15.38;9.25;;;;;;;5.93;67.37;101056.78;4957252;28;20442;-64
2022/04/12 04:33:44;;;;;;;20.40;9.65;;;;;;;5.90;66.93;101063.94;4956016;28;20038;-64
2022/04/12 04:36:09;;;;;;;16.05;9.13;;;;;;;5.81;67.74;101065.19;4954983;28;20045;-64
2022/04/12 04:38:35;;;;;;;17.63;8.98;;;;;;;5.82;67.77;101061.59;4956817;28;20043;-64
2022/04/12 04:41:00;;;;;;;14.15;9.50;;;;;;;5.77;67.71;101058.28;4956339;28;20419;-64
2022/04/12 04:43:26;;;;;;;17.65;9.05;;;;;;;5.78;67.12;101059.16;4951121;28;20050;-64
2022/04/12 04:45:53;;;;;;;10.98;8.15;;;;;;;5.77;67.53;101058.28;4956654;28;20043;-64
2022/04/12 04:48:18;;;;;;;14.35;9.55;;;;;;;5.75;67.88;101054.00;4955247;28;20050;-65
2022/04/12 04:50:43;;;;;;;17.92;8.77;;;;;;;5.80;66.88;101049.38;4958079;28;20050;-64
2022/04/12 04:53:12;;;;;;;16.90;8.95;;;;;;;5.92;66.39;101048.91;4957631;28;20066;-64
2022/04/12 04:55:40;;;;;;;17.48;8.27;;;;;;;5.96;66.71;101056.66;4957639;28;20095;-64
2022/04/12 04:58:05;;;;;;;11.77;8.18;;;;;;;6.10;66.25;101050.78;4957763;28;20045;-64
2022/04/12 05:00:34;;;;;;;16.25;8.82;;;;;;;6.02;66.41;101052.88;4957521;28;20050;-64
2022/04/12 05:03:01;;;;;;;12.63;8.30;;;;;;;6.14;66.21;101047.09;4959042;28;20039;-64
2022/04/12 05:05:27;;;;;;;15.07;8.07;;;;;;;6.16;66.04;101047.03;4958548;28;20038;-64
2022/04/12 05:07:54;;;;;;;14.93;8.35;;;;;;;6.24;66.01;101042.28;4955542;28;20067;-65
2022/04/12 05:10:32;;;;;;;14.20;8.25;;;;;;;6.36;65.61;101041.75;4959395;28;20050;-64
2022/04/12 05:12:58;;;;;;;16.77;9.50;;;;;;;6.42;64.97;101036.19;4958678;28;20710;-64
2022/04/12 05:15:24;;;;;;;13.48;8.55;;;;;;;6.48;65.12;101038.59;4953258;28;20042;-64
2022/04/12 05:17:54;;;;;;;14.85;9.15;;;;;;;6.58;64.40;101043.50;4956455;28;20271;-64
2022/04/12 05:20:21;;;;;;;12.73;8.93;;;;;;;6.64;64.17;101049.38;4957698;28;20042;-64
2022/04/12 05:22:47;;;;;;;15.10;8.93;;;;;;;6.69;64.60;101065.94;4944024;28;20058;-64
2022/04/12 05:25:13;;;;;;;15.88;8.35;;;;;;;6.73;64.59;101058.72;4934885;29;20031;-64
2022/04/12 05:27:39;;;;;;;16.02;9.77;;;;;;;6.70;64.62;101056.19;4937776;28;20495;-67
2022/04/12 05:30:10;;;;;;;15.52;9.43;;;;;;;6.74;64.93;101060.44;4944859;28;20441;-64
2022/04/12 05:32:36;;;;;;;15.23;8.70;;;;;;;6.82;64.37;101058.28;4950565;28;20033;-64
2022/04/12 05:35:03;;;;;;;16.80;10.07;;;;;;;6.74;64.89;101056.00;4950876;28;20050;-64
2022/04/12 05:37:29;;;;;;;17.38;8.98;;;;;;;6.78;65.04;101059.38;4956871;28;20548;-64
2022/04/12 05:39:56;;;;;;;14.77;9.73;;;;;;;6.78;64.75;101054.09;4954093;28;20058;-64
2022/04/12 05:42:23;;;;;;;19.20;10.73;;;;;;;6.83;64.23;101044.13;4954367;28;20070;-64
2022/04/12 05:44:48;;;;;;;13.45;9.18;;;;;;;6.91;64.58;101044.63;4958062;28;20050;-64
2022/04/12 05:47:14;;;;;;;15.52;10.40;;;;;;;7.09;64.31;101048.25;4957599;28;20356;-64
2022/04/12 05:49:39;;;;;;;16.35;10.15;;;;;;;7.11;64.78;101043.72;4954852;28;20050;-64
2022/04/12 05:52:06;;;;;;;15.25;10.02;;;;;;;7.11;64.31;101041.06;4954009;28;20109;-64
2022/04/12 05:54:31;;;;;;;22.70;10.35;;;;;;;7.22;64.60;101043.22;4955289;28;20115;-64
2022/04/12 05:56:57;;;;;;;16.50;10.23;;;;;;;7.33;64.13;101043.63;4954759;28;20830;-64
2022/04/12 05:59:22;;;;;;;13.65;9.30;;;;;;;7.42;62.90;101060.88;4953291;28;20043;-64
2022/04/12 06:01:48;;;;;;;16.48;9.52;;;;;;;7.52;63.45;101063.03;4949694;28;20047;-64
2022/04/12 06:04:14;;;;;;;16.33;10.13;;;;;;;7.74;62.59;101065.53;4951279;28;20073;-64
2022/04/12 06:06:41;;;;;;;15.27;8.55;;;;;;;8.26;59.89;101064.75;4951647;28;20591;-64
2022/04/12 06:09:07;;;;;;;15.02;10.15;;;;;;;8.40;60.53;101064.97;4950743;28;20043;-64
2022/04/12 06:11:33;;;;;;;15.80;9.60;;;;;;;8.42;59.05;101071.06;4954626;28;20051;-64
2022/04/12 06:13:58;;;;;;;16.23;9.77;;;;;;;8.37;60.71;101067.75;4956084;28;20096;-64
2022/04/12 06:16:24;;;;;;;17.90;9.30;;;;;;;8.41;60.18;101064.03;4955996;28;20058;-64
2022/04/12 06:18:53;;;;;;;20.25;10.57;;;;;;;8.56;59.63;101057.06;4956050;28;20034;-64
2022/04/12 06:21:19;;;;;;;15.48;9.00;;;;;;;8.77;59.01;101055.09;4948023;28;20078;-64
2022/04/12 06:23:45;;;;;;;17.42;10.05;;;;;;;9.02;58.52;101067.94;4937227;28;20154;-64
2022/04/12 06:26:10;;;;;;;15.45;9.40;;;;;;;9.88;56.40;101058.75;4936360;28;20065;-64
2022/04/12 06:28:36;;;;;;;18.08;9.73;;;;;;;9.45;57.00;101068.28;4935338;29;20093;-66
2022/04/12 06:31:02;;;;;;;16.55;9.30;;;;;;;9.43;56.90;101063.03;4935168;28;20054;-64
2022/04/12 06:33:28;;;;;;;14.65;9.00;;;;;;;9.88;56.12;101063.22;4938525;28;20812;-64
2022/04/12 06:35:54;;;;;;;13.75;9.10;;;;;;;10.51;53.76;101049.78;4940182;29;20043;-64
2022/04/12 06:38:19;;;;;;;13.90;9.15;;;;;;;11.02;52.33;101056.44;4943903;28;20046;-64
2022/04/12 06:40:46;;;;;;;14.35;9.05;;;;;;;10.87;52.97;101063.56;4958419;28;20043;-64
2022/04/12 06:43:12;;;;;;;16.52;9.20;;;;;;;10.60;52.90;101062.56;4957238;28;20054;-64
2022/04/12 06:45:41;;;;;;;16.85;9.90;;;;;;;10.18;54.39;101071.25;4958846;28;20039;-64
2022/04/12 06:48:07;;;;;;;15.20;9.13;;;;;;;10.00;54.47;101075.84;4958607;28;20055;-64
2022/04/12 06:50:32;;;;;;;15.02;9.35;;;;;;;9.67;55.88;101078.59;4958781;28;20050;-64
2022/04/12 06:52:58;;;;;;;14.85;9.35;;;;;;;10.33;54.64;101081.91;4955307;28;20035;-65
2022/04/12 06:55:24;;;;;;;17.63;9.45;;;;;;;11.01;53.63;101072.53;4958024;28;20028;-64
2022/04/12 06:57:50;;;;;;;18.55;9.88;;;;;;;11.49;52.38;101070.41;4953919;28;20544;-64
2022/04/12 07:00:19;;;;;;;18.48;9.75;;;;;;;11.76;53.11;101060.66;4955003;28;20052;-64
2022/04/12 07:02:44;;;;;;;15.23;9.40;;;;;;;11.98;51.75;101061.94;4956866;28;20128;-64
2022/04/12 07:05:10;;;;;;;12.63;9.07;;;;;;;11.97;51.70;101058.41;4958400;28;20075;-65
2022/04/12 07:07:36;;;;;;;12.77;8.32;;;;;;;12.16;50.61;101053.56;4958342;28;20142;-64
2022/04/12 07:10:07;;;;;;;12.93;9.32;;;;;;;12.29;50.99;101052.75;4957279;28;20329;-64
2022/04/12 07:12:32;;;;;;;15.88;8.93;;;;;;;12.72;48.91;101041.81;4956930;28;20049;-64
2022/04/12 07:14:58;;;;;;;15.43;8.98;;;;;;;12.90;48.83;101053.88;4958499;28;20507;-64
2022/04/12 07:17:23;;;;;;;15.88;9.38;;;;;;;12.78;49.39;101042.22;4959817;28;20480;-64
2022/04/12 07:19:48;;;;;;;18.00;8.77;;;;;;;13.45;49.25;101040.19;4957960;28;20065;-64
2022/04/12 07:22:14;;;;;;;15.20;8.88;;;;;;;13.55;47.79;101037.66;4955540;28;20854;-64
2022/04/12 07:24:39;;;;;;;13.65;8.55;;;;;;;13.70;47.58;101038.38;4958347;28;20062;-64
2022/04/12 07:27:05;;;;;;;13.95;9.25;;;;;;;13.64;47.58;101044.19;4958078;28;20047;-64
2022/04/12 07:29:30;;;;;;;13.10;8.40;;;;;;;13.62;48.56;101038.94;4958234;28;20043;-64
2022/04/12 07:31:56;;;;;;;15.98;9.15;;;;;;;13.42;51.01;101029.66;4959063;28;20054;-64
2022/04/12 07:34:22;;;;;;;14.57;8.48;;;;;;;13.38;48.03;101020.13;4959015;28;20109;-64
2022/04/12 07:36:53;;;;;;;11.82;8.13;;;;;;;13.15;49.04;101023.56;4958933;28;20479;-64
2022/04/12 07:39:19;;;;;;;15.60;7.93;;;;;;;13.10;49.64;101018.56;4958311;28;20132;-65
2022/04/12 07:41:45;;;;;;;13.73;8.45;;;;;;;13.21;48.47;101025.84;4958287;28;20049;-64
2022/04/12 07:44:12;;;;;;;13.05;8.63;;;;;;;13.57;47.94;101018.81;4958038;28;20198;-65
2022/04/12 07:46:37;;;;;;;15.00;8.77;;;;;;;13.54;48.17;101017.19;4958621;28;20043;-64
2022/04/12 07:49:02;;;;;;;15.32;10.20;;;;;;;13.83;47.90;101012.38;4958478;28;20571;-64
2022/04/12 07:51:28;;;;;;;19.27;8.82;;;;;;;14.18;48.64;101001.69;4958200;28;20046;-64
2022/04/12 07:53:53;;;;;;;15.98;8.75;;;;;;;14.35;49.01;101003.06;4972200;28;20047;-64
2022/04/12 07:56:19;;;;;;;15.23;7.82;;;;;;;14.37;46.34;101001.16;4958036;28;20072;-64
2022/04/12 07:58:44;;;;;;;17.20;8.73;;;;;;;14.75;47.08;100984.75;4958075;28;20050;-64
2022/04/12 08:01:09;;;;;;;13.18;7.68;;;;;;;14.83;46.01;100983.31;4957274;28;20411;-64
2022/04/12 08:03:36;;;;;;;14.35;8.20;;;;;;;14.32;46.50;100981.84;4957245;28;20054;-65
2022/04/12 08:06:02;;;;;;;12.70;7.65;;;;;;;14.58;47.76;100970.97;4956904;28;20439;-64
2022/04/12 08:08:28;;;;;;;12.45;6.55;;;;;;;14.91;46.96;100972.81;4956195;28;20050;-64
2022/04/12 08:10:53;;;;;;;16.63;8.23;;;;;;;14.95;46.59;100969.75;4955196;28;20039;-64
2022/04/12 08:13:19;;;;;;;12.90;7.72;;;;;;;14.52;46.56;100974.13;4954819;28;20043;-64
2022/04/12 08:15:44;;;;;;;14.18;8.00;;;;;;;15.12;46.91;100983.69;4956580;28;20054;-64
2022/04/12 08:18:10;;;;;;;16.05;7.90;;;;;;;15.65;45.30;100984.72;4955957;28;20043;-64
2022/04/12 08:20:35;;;;;;;10.85;7.25;;;;;;;15.19;44.74;100995.63;4953667;28;20073;-65
2022/04/12 08:23:02;;;;;;;16.58;8.60;;;;;;;15.06;46.43;100994.91;4938079;28;20044;-64
2022/04/12 08:25:28;;;;;;;14.88;7.53;;;;;;;15.28;45.87;100994.91;4938264;28;20043;-65
2022/04/12 08:27:53;;;;;;;27.15;8.10;;;;;;;15.26;45.76;100997.72;4936140;28;20491;-65
2022/04/12 08:30:19;;;;;;;15.45;7.50;;;;;;;16.08;47.05;101005.38;4936976;28;20043;-65
2022/04/12 08:32:45;;;;;;;20.80;7.70;;;;;;;16.27;46.90;101001.97;4941157;28;20027;-64
2022/04/12 08:35:10;;;;;;;13.30;7.80;;;;;;;15.76;46.74;100999.97;4956487;28;20046;-64
2022/04/12 08:37:36;;;;;;;14.57;7.93;;;;;;;16.34;45.93;100996.91;4952493;28;20053;-64
2022/04/12 08:40:02;;;;;;;13.23;7.80;;;;;;;16.13;45.48;100987.00;4955439;28;20121;-64
2022/04/12 08:42:27;;;;;;;12.27;7.13;;;;;;;16.10;44.76;100991.78;4957519;28;20380;-64
2022/04/12 08:44:54;;;;;;;15.90;7.95;;;;;;;16.94;45.16;100989.94;4956441;28;20055;-64
2022/04/12 08:47:21;;;;;;;14.32;7.30;;;;;;;16.53;44.18;100992.53;4957335;28;20923;-65
2022/04/12 08:49:46;;;;;;;13.50;7.43;;;;;;;16.05;45.85;100997.53;4956039;28;20047;-64
2022/04/12 08:52:13;;;;;;;12.77;7.07;;;;;;;15.82;46.13;100999.47;4955937;28;20046;-64
2022/04/12 08:54:40;;;;;;;22.65;8.63;;;;;;;15.86;46.87;100992.84;4950985;28;20038;-64
2022/04/12 08:57:07;;;;;;;11.07;6.80;;;;;;;16.28;45.76;100988.38;4952283;28;20039;-64
2022/04/12 08:59:33;;;;;;;13.07;7.13;;;;;;;16.74;45.29;100995.22;4947961;28;20039;-64
2022/04/12 09:01:59;;;;;;;11.63;7.55;;;;;;;16.73;45.92;100993.53;4937179;28;20062;-64
2022/04/12 09:04:27;;;;;;;15.13;7.43;;;;;;;16.97;44.87;100987.84;4936732;28;20094;-64
2022/04/12 09:06:54;;;;;;;14.77;6.93;;;;;;;16.00;45.47;100989.84;4950895;28;20526;-64
2022/04/12 09:09:21;;;;;;;16.45;8.18;;;;;;;15.91;45.80;100982.53;4936645;28;20129;-64
2022/04/12 09:12:04;;;;;;;19.45;7.47;;;;;;;15.86;46.00;100978.53;4934631;28;20090;-64
2022/04/12 09:14:57;;;;;;;12.38;6.85;;;;;;;16.31;47.87;100977.38;4936140;28;20062;-64
2022/04/12 09:17:35;;;;;;;15.75;7.35;;;;;;;16.44;46.22;100979.00;4938458;28;20055;-64
2022/04/12 09:20:03;;;;;;;14.73;7.40;;;;;;;16.91;44.97;100984.81;4955639;28;20058;-64
2022/04/12 09:22:30;;;;;;;13.45;7.72;;;;;;;16.34;46.51;100978.94;4955522;28;20039;-64
2022/04/12 09:25:01;;;;;;;15.00;6.93;;;;;;;16.39;45.73;100965.94;4956830;28;20051;-64
2022/04/12 09:27:28;;;;;;;12.38;6.65;;;;;;;17.12;46.30;100956.00;4956120;28;20078;-64
2022/04/12 09:30:01;;;;;;;14.18;7.63;;;;;;;17.08;45.85;100968.88;4955803;28;20085;-64
2022/04/12 09:32:29;;;;;;;12.95;6.68;;;;;;;17.44;43.77;100965.72;4954810;28;20070;-64
2022/04/12 09:34:55;;;;;;;11.60;7.25;;;;;;;16.97;46.95;100971.69;4955036;28;20349;-64
2022/04/12 09:37:28;;;;;;;14.93;6.93;;;;;;;16.51;45.12;100966.72;4956245;28;20437;-64
2022/04/12 09:39:55;;;;;;;14.70;7.75;;;;;;;17.04;47.15;100967.44;4939638;28;20836;-64
2022/04/12 09:42:50;;;;;;;14.38;7.30;;;;;;;17.35;44.41;100973.63;4937385;28;20075;-64
2022/04/12 09:45:27;;;;;;;17.10;7.43;;;;;;;17.13;46.73;100968.47;4937387;28;20048;-64
2022/04/12 09:47:54;;;;;;;17.33;7.57;;;;;;;17.76;46.52;100968.22;4936070;28;20532;-64
2022/04/12 09:50:24;;;;;;;16.33;7.82;;;;;;;17.41;45.86;100964.13;4936734;28;20575;-64
2022/04/12 09:52:56;;;;;;;15.07;7.82;;;;;;;17.77;44.39;100967.22;4937195;29;20047;-64
2022/04/12 09:55:37;;;;;;;15.60;8.00;;;;;;;17.97;44.54;100947.38;4936587;28;20479;-64
2022/04/12 09:58:17;;;;;;;15.73;7.30;;;;;;;17.45;44.43;100953.94;4953123;28;20066;-64
2022/04/12 10:00:47;;;;;;;17.15;7.07;;;;;;;18.34;45.58;100947.44;4956436;28;20061;-64
2022/04/12 10:03:14;;;;;;;12.30;6.97;;;;;;;18.60;46.03;100953.06;4956469;28;20084;-64
2022/04/12 10:05:41;;;;;;;15.20;7.45;;;;;;;18.47;43.46;100955.22;4955095;28;20053;-64
2022/04/12 10:08:10;;;;;;;18.65;7.25;;;;;;;18.95;44.24;100946.16;4959612;28;20171;-64
2022/04/12 10:10:35;;;;;;;12.07;7.07;;;;;;;18.78;43.27;100942.41;4958062;28;20047;-64
2022/04/12 10:13:01;;;;;;;12.80;7.05;;;;;;;18.68;44.58;100948.81;4959303;28;20039;-64
2022/04/12 10:15:28;;;;;;;12.98;7.57;;;;;;;18.34;44.39;100942.06;4959120;28;20054;-64
2022/04/12 10:17:54;;;;;;;10.98;6.15;;;;;;;18.99;45.17;100941.31;4959379;28;20047;-65
2022/04/12 10:20:20;;;;;;;12.48;6.60;;;;;;;18.16;43.29;100932.97;4961511;28;20443;-64
2022/04/12 10:22:47;;;;;;;13.45;7.40;;;;;;;18.48;43.06;100938.06;5040933;28;20033;-64
2022/04/12 10:25:19;;;;;;;12.88;7.05;;;;;;;18.81;43.85;100933.97;5041411;28;20060;-64
2022/04/12 10:27:45;;;;;;;13.25;7.43;;;;;;;19.15;43.06;100934.25;5041743;28;20037;-64
2022/04/12 10:30:17;;;;;;;13.50;7.15;;;;;;;18.26;43.13;100933.81;5041648;28;20041;-64
2022/04/12 10:32:59;;;;;;;15.85;6.43;;;;;;;17.97;44.67;100933.00;5041474;28;20049;-64
2022/04/12 10:35:25;;;;;;;;;;;;;;;18.94;44.75;100927.41;5041799;28;20044;-64
2022/04/12 10:37:52;;;;;;;13.85;6.60;;;;;;;19.18;42.81;100938.53;5038030;28;19917;-64
2022/04/12 10:40:19;;;;;;;14.65;7.63;;;;;;;19.80;44.70;100931.44;5040722;28;20056;-64
2022/04/12 10:42:44;;;;;;;13.32;6.47;;;;;;;19.85;41.77;100929.09;5041193;28;20040;-64
2022/04/12 10:45:10;;;;;;;14.45;7.05;;;;;;;20.13;41.61;100921.75;5041253;28;20931;-65
2022/04/12 10:47:43;;;;;;;15.07;6.22;;;;;;;20.18;41.92;100924.81;5040891;28;20071;-64
2022/04/12 10:50:12;;;;;;;10.52;5.55;;;;;;;19.72;41.50;100919.66;5054671;28;20055;-64
2022/04/12 10:52:45;;;;;;;14.52;6.18;;;;;;;19.07;39.99;100928.72;5038076;28;20793;-64
2022/04/12 10:55:22;;;;;;;7.40;4.93;;;;;;;19.55;40.27;100914.06;5039970;28;20037;-64
2022/04/12 10:57:47;;;;;;;12.15;5.85;;;;;;;18.82;39.27;100918.59;5040393;28;20516;-64
2022/04/12 11:00:18;;;;;;;12.70;6.40;;;;;;;18.86;42.52;100920.03;5040990;28;20037;-64
2022/04/12 11:02:52;;;;;;;11.43;5.95;;;;;;;18.41;40.26;100912.59;4972177;28;20081;-63
2022/04/12 11:05:36;;;;;;;8.68;4.85;;;;;;;18.99;40.29;100912.44;4949543;28;20726;-63
2022/04/12 11:08:36;;;;;;;9.18;5.10;;;;;;;18.81;40.19;100900.72;4955236;28;20168;-62
2022/04/12 11:11:01;;;;;;;8.93;4.75;;;;;;;18.94;39.68;100900.38;4962019;28;20138;-63
2022/04/12 11:13:34;;;;;;;12.65;5.68;;;;;;;19.59;42.86;100896.56;4943873;28;20047;-63
2022/04/12 11:16:11;;;;;;;8.07;4.82;;;;;;;19.54;40.77;100900.72;4939852;28;20039;-62
2022/04/12 11:18:56;;;;;;;9.27;4.88;;;;;;;19.11;40.50;100899.56;4947942;28;20058;-63
2022/04/12 11:21:24;;;;;;;9.80;5.28;;;;;;;18.84;41.61;100890.47;4959026;28;20174;-63
2022/04/12 11:23:51;;;;;;;9.55;4.97;;;;;;;18.86;41.62;100876.78;4959012;28;20070;-63